sensor_id;sensor_type;location;lat;lon;timestamp;pressure;altitude;pressure_sealevel;temperature;humidity
70909;BME280;58554;52.006;5.926;2023-07-09T18:20:36;101098.22;;;23.76;59.03
70909;BME280;58554;52.006;5.926;2023-07-09T18:23:03;101104.47;;;23.84;59.60
70909;BME280;58554;52.006;5.926;2023-07-09T18:25:30;101096.22;;;23.94;59.69
70909;BME280;58554;52.006;5.926;2023-07-09T18:28:01;101104.81;;;24.06;60.36
70909;BME280;58554;52.006;5.926;2023-07-09T18:30:33;101095.38;;;24.18;60.40
70909;BME280;58554;52.006;5.926;2023-07-09T18:33:03;101091.03;;;24.26;60.35
70909;BME280;58554;52.006;5.926;2023-07-09T18:35:33;101080.00;;;24.35;60.56
70909;BME280;58554;52.006;5.926;2023-07-09T18:38:05;101082.91;;;24.42;60.59
70909;BME280;58554;52.006;5.926;2023-07-09T18:40:36;101081.34;;;24.48;60.47
70909;BME280;58554;52.006;5.926;2023-07-09T18:43:10;101070.06;;;24.52;60.26
70909;BME280;58554;52.006;5.926;2023-07-09T18:45:37;101070.34;;;24.57;60.47
70909;BME280;58554;52.006;5.926;2023-07-09T18:48:12;101074.56;;;24.60;60.63
70909;BME280;58554;52.006;5.926;2023-07-09T18:50:43;101080.50;;;24.63;60.16
70909;BME280;58554;52.006;5.926;2023-07-09T18:53:12;101081.50;;;24.62;60.11
70909;BME280;58554;52.006;5.926;2023-07-09T18:55:40;101074.03;;;24.64;60.09
70909;BME280;58554;52.006;5.926;2023-07-09T18:58:10;101083.19;;;24.63;60.02
70909;BME280;58554;52.006;5.926;2023-07-09T19:00:37;101078.13;;;24.60;60.27
70909;BME280;58554;52.006;5.926;2023-07-09T19:03:04;101071.03;;;24.59;60.15
70909;BME280;58554;52.006;5.926;2023-07-09T19:05:31;101070.34;;;24.57;60.21
70909;BME280;58554;52.006;5.926;2023-07-09T19:08:15;101072.38;;;24.55;60.71
70909;BME280;58554;52.006;5.926;2023-07-09T19:10:44;101078.31;;;24.51;60.36
70909;BME280;58554;52.006;5.926;2023-07-09T19:13:11;101075.94;;;24.48;60.41
70909;BME280;58554;52.006;5.926;2023-07-09T19:15:38;101070.91;;;24.44;60.11
70909;BME280;58554;52.006;5.926;2023-07-09T19:18:08;101076.63;;;24.41;60.43
70909;BME280;58554;52.006;5.926;2023-07-09T19:20:44;101079.53;;;24.40;60.15
70909;BME280;58554;52.006;5.926;2023-07-09T19:23:18;101065.50;;;24.36;60.12
70909;BME280;58554;52.006;5.926;2023-07-09T19:25:45;101056.22;;;24.31;60.10
70909;BME280;58554;52.006;5.926;2023-07-09T19:28:12;101057.75;;;24.25;60.08
70909;BME280;58554;52.006;5.926;2023-07-09T19:30:40;101062.94;;;24.18;60.16
70909;BME280;58554;52.006;5.926;2023-07-09T19:33:15;101059.09;;;24.13;60.15
70909;BME280;58554;52.006;5.926;2023-07-09T19:35:44;101056.03;;;24.08;60.45
70909;BME280;58554;52.006;5.926;2023-07-09T19:38:14;101052.50;;;23.99;60.54
70909;BME280;58554;52.006;5.926;2023-07-09T19:40:41;101059.09;;;23.88;60.37
70909;BME280;58554;52.006;5.926;2023-07-09T19:43:11;101065.97;;;23.74;60.94
70909;BME280;58554;52.006;5.926;2023-07-09T19:45:41;101078.31;;;23.60;61.22
70909;BME280;58554;52.006;5.926;2023-07-09T19:48:13;101070.88;;;23.54;61.42
70909;BME280;58554;52.006;5.926;2023-07-09T19:50:42;101071.34;;;23.50;61.70
70909;BME280;58554;52.006;5.926;2023-07-09T19:53:23;101073.19;;;23.49;62.16
70909;BME280;58554;52.006;5.926;2023-07-09T19:55:51;101077.59;;;23.50;62.15
70909;BME280;58554;52.006;5.926;2023-07-09T19:58:18;101082.66;;;23.53;62.36
70909;BME280;58554;52.006;5.926;2023-07-09T20:00:45;101085.19;;;23.55;62.42
70909;BME280;58554;52.006;5.926;2023-07-09T20:03:21;101095.16;;;23.62;62.29
70909;BME280;58554;52.006;5.926;2023-07-09T20:05:49;101094.16;;;23.63;62.56
70909;BME280;58554;52.006;5.926;2023-07-09T20:08:18;101094.16;;;23.72;62.44
70909;BME280;58554;52.006;5.926;2023-07-09T20:10:48;101103.47;;;23.77;62.46
70909;BME280;58554;52.006;5.926;2023-07-09T20:13:25;101093.69;;;23.84;62.45
70909;BME280;58554;52.006;5.926;2023-07-09T20:15:54;101094.88;;;23.90;62.45
70909;BME280;58554;52.006;5.926;2023-07-09T20:18:21;101095.03;;;23.97;62.49
70909;BME280;58554;52.006;5.926;2023-07-09T20:20:50;101103.31;;;24.03;62.46
70909;BME280;58554;52.006;5.926;2023-07-09T20:23:22;101107.03;;;24.11;62.38
70909;BME280;58554;52.006;5.926;2023-07-09T20:25:49;101127.78;;;24.18;62.40
70909;BME280;58554;52.006;5.926;2023-07-09T20:28:18;101121.75;;;24.24;62.01
70909;BME280;58554;52.006;5.926;2023-07-09T20:30:48;101121.25;;;24.29;62.41
70909;BME280;58554;52.006;5.926;2023-07-09T20:33:17;101118.72;;;24.36;61.91
70909;BME280;58554;52.006;5.926;2023-07-09T20:35:43;101113.31;;;24.36;61.83
70909;BME280;58554;52.006;5.926;2023-07-09T20:38:13;101122.09;;;24.38;61.85
70909;BME280;58554;52.006;5.926;2023-07-09T20:40:45;101120.25;;;24.38;61.84
70909;BME280;58554;52.006;5.926;2023-07-09T20:43:20;101117.84;;;24.43;61.83
70909;BME280;58554;52.006;5.926;2023-07-09T20:45:49;101121.41;;;24.44;61.60
70909;BME280;58554;52.006;5.926;2023-07-09T20:48:16;101122.41;;;24.51;61.58
70909;BME280;58554;52.006;5.926;2023-07-09T20:50:43;101123.94;;;24.54;61.85
70909;BME280;58554;52.006;5.926;2023-07-09T20:53:14;101116.16;;;24.59;61.56
70909;BME280;58554;52.006;5.926;2023-07-09T20:55:46;101116.63;;;24.62;61.43
70909;BME280;58554;52.006;5.926;2023-07-09T20:58:14;101106.03;;;24.61;61.30
70909;BME280;58554;52.006;5.926;2023-07-09T21:00:42;101102.28;;;24.62;61.26
70909;BME280;58554;52.006;5.926;2023-07-09T21:03:12;101106.69;;;24.63;61.62
70909;BME280;58554;52.006;5.926;2023-07-09T21:05:40;101096.03;;;24.61;61.29
70909;BME280;58554;52.006;5.926;2023-07-09T21:08:11;101096.03;;;24.61;61.31
70909;BME280;58554;52.006;5.926;2023-07-09T21:10:39;101111.22;;;24.62;61.62
70909;BME280;58554;52.006;5.926;2023-07-09T21:13:12;101115.63;;;24.63;61.13
70909;BME280;58554;52.006;5.926;2023-07-09T21:15:41;101105.66;;;24.64;61.24
70909;BME280;58554;52.006;5.926;2023-07-09T21:18:13;101103.47;;;24.68;61.17
70909;BME280;58554;52.006;5.926;2023-07-09T21:20:42;101105.50;;;24.65;61.14
70909;BME280;58554;52.006;5.926;2023-07-09T21:23:13;101121.56;;;24.67;61.24
70909;BME280;58554;52.006;5.926;2023-07-09T21:25:41;101102.94;;;24.64;61.31
70909;BME280;58554;52.006;5.926;2023-07-09T21:28:10;101112.56;;;24.67;61.52
70909;BME280;58554;52.006;5.926;2023-07-09T21:30:38;101129.16;;;24.63;61.10
70909;BME280;58554;52.006;5.926;2023-07-09T21:33:05;101134.56;;;24.63;61.43
70909;BME280;58554;52.006;5.926;2023-07-09T21:35:36;101134.06;;;24.60;61.58
70909;BME280;58554;52.006;5.926;2023-07-09T21:38:04;101131.34;;;24.60;61.50
70909;BME280;58554;52.006;5.926;2023-07-09T21:40:43;101118.50;;;24.54;61.56
70909;BME280;58554;52.006;5.926;2023-07-09T21:43:13;101113.63;;;24.49;61.49
70909;BME280;58554;52.006;5.926;2023-07-09T21:45:41;101121.22;;;24.45;61.51
70909;BME280;58554;52.006;5.926;2023-07-09T21:48:13;101125.81;;;24.45;61.74
70909;BME280;58554;52.006;5.926;2023-07-09T21:50:42;101135.78;;;24.44;61.75
70909;BME280;58554;52.006;5.926;2023-07-09T21:53:14;101145.56;;;24.45;61.89
70909;BME280;58554;52.006;5.926;2023-07-09T21:55:41;101153.50;;;24.47;61.69
70909;BME280;58554;52.006;5.926;2023-07-09T21:58:08;101152.50;;;24.48;61.95
70909;BME280;58554;52.006;5.926;2023-07-09T22:00:37;101147.09;;;24.48;62.04
70909;BME280;58554;52.006;5.926;2023-07-09T22:03:05;101142.38;;;24.50;61.75
70909;BME280;58554;52.006;5.926;2023-07-09T22:05:31;101139.66;;;24.50;61.55
70909;BME280;58554;52.006;5.926;2023-07-09T22:08:00;101136.97;;;24.50;61.53
70909;BME280;58554;52.006;5.926;2023-07-09T22:10:31;101129.00;;;24.49;61.49
70909;BME280;58554;52.006;5.926;2023-07-09T22:13:02;101133.75;;;24.47;61.61
70909;BME280;58554;52.006;5.926;2023-07-09T22:15:32;101134.75;;;24.45;61.72
70909;BME280;58554;52.006;5.926;2023-07-09T22:18:04;101132.91;;;24.46;61.95
70909;BME280;58554;52.006;5.926;2023-07-09T22:20:36;101147.44;;;24.45;61.54
70909;BME280;58554;52.006;5.926;2023-07-09T22:23:05;101153.66;;;24.37;61.67
70909;BME280;58554;52.006;5.926;2023-07-09T22:25:41;101147.44;;;24.29;61.66
70909;BME280;58554;52.006;5.926;2023-07-09T22:28:08;101154.03;;;24.26;62.02
70909;BME280;58554;52.006;5.926;2023-07-09T22:30:39;101144.41;;;24.23;61.99
70909;BME280;58554;52.006;5.926;2023-07-09T22:33:08;101134.59;;;24.22;61.72
70909;BME280;58554;52.006;5.926;2023-07-09T22:35:35;101140.81;;;24.15;61.96
70909;BME280;58554;52.006;5.926;2023-07-09T22:38:02;101149.41;;;24.10;62.04
70909;BME280;58554;52.006;5.926;2023-07-09T22:40:30;101147.06;;;24.07;61.95
70909;BME280;58554;52.006;5.926;2023-07-09T22:42:57;101141.97;;;24.04;62.25
70909;BME280;58554;52.006;5.926;2023-07-09T22:45:26;101147.88;;;23.99;62.25
70909;BME280;58554;52.006;5.926;2023-07-09T22:47:56;101157.16;;;23.97;62.21
70909;BME280;58554;52.006;5.926;2023-07-09T22:50:30;101150.06;;;23.96;62.26
70909;BME280;58554;52.006;5.926;2023-07-09T22:52:58;101158.50;;;23.93;62.39
70909;BME280;58554;52.006;5.926;2023-07-09T22:55:29;101152.44;;;23.91;62.55
70909;BME280;58554;52.006;5.926;2023-07-09T22:58:00;101150.75;;;23.90;62.34
70909;BME280;58554;52.006;5.926;2023-07-09T23:00:31;101152.44;;;23.91;62.75
70909;BME280;58554;52.006;5.926;2023-07-09T23:03:10;101152.44;;;23.91;62.65
70909;BME280;58554;52.006;5.926;2023-07-09T23:05:42;101158.00;;;23.89;62.65
70909;BME280;58554;52.006;5.926;2023-07-09T23:08:18;101157.16;;;23.89;62.83
70909;BME280;58554;52.006;5.926;2023-07-09T23:10:49;101167.97;;;23.89;62.36
70909;BME280;58554;52.006;5.926;2023-07-09T23:13:17;101164.56;;;23.87;62.42
70909;BME280;58554;52.006;5.926;2023-07-09T23:15:45;101159.53;;;23.83;62.60
70909;BME280;58554;52.006;5.926;2023-07-09T23:18:13;101157.97;;;23.81;62.36
70909;BME280;58554;52.006;5.926;2023-07-09T23:20:45;101161.19;;;23.76;62.50
70909;BME280;58554;52.006;5.926;2023-07-09T23:23:11;101148.66;;;23.67;62.46
70909;BME280;58554;52.006;5.926;2023-07-09T23:25:38;101153.41;;;23.65;62.77
70909;BME280;58554;52.006;5.926;2023-07-09T23:28:06;101154.38;;;23.64;63.09
70909;BME280;58554;52.006;5.926;2023-07-09T23:30:35;101158.78;;;23.65;63.02
70909;BME280;58554;52.006;5.926;2023-07-09T23:33:02;101164.19;;;23.65;62.70
70909;BME280;58554;52.006;5.926;2023-07-09T23:35:51;101161.66;;;23.63;63.12
70909;BME280;58554;52.006;5.926;2023-07-09T23:38:19;101156.75;;;23.59;62.73
70909;BME280;58554;52.006;5.926;2023-07-09T23:40:46;101151.34;;;23.59;63.07
70909;BME280;58554;52.006;5.926;2023-07-09T23:43:14;101157.44;;;23.61;63.02
70909;BME280;58554;52.006;5.926;2023-07-09T23:45:42;101157.44;;;23.61;63.10
70909;BME280;58554;52.006;5.926;2023-07-09T23:48:22;101161.13;;;23.60;62.75
70909;BME280;58554;52.006;5.926;2023-07-09T23:50:54;101156.91;;;23.57;62.80
70909;BME280;58554;52.006;5.926;2023-07-09T23:53:25;101159.75;;;23.56;62.93
70909;BME280;58554;52.006;5.926;2023-07-09T23:55:53;101153.69;;;23.54;63.02
70909;BME280;58554;52.006;5.926;2023-07-09T23:58:24;101154.84;;;23.51;62.99
